Time;durP1;ratioP1;P1;durP2;ratioP2;P2;SDS_P1;SDS_P2;PMS_P1;PMS_P2;Temp;Humidity;BMP_temperature;BMP_pressure;BME280_temperature;BME280_humidity;BME280_pressure;Samples;Min_cycle;Max_cycle;Signal;HPM_P1;HPM_P2
2023/06/22 00:01:01;;;;;;;;;;;;;;;;;;5026895;28;89401;-74
2023/06/22 00:03:26;;;;;;;;;;;;;;;;;;5027233;28;89694;-74
2023/06/22 00:05:52;;;;;;;;;;;;;;;;;;5023191;28;89781;-74
2023/06/22 00:08:18;;;;;;;;;;;;;;;;;;5026799;28;89554;-75
2023/06/22 00:10:43;;;;;;;;;;;;;;;;;;5027214;28;89632;-74
2023/06/22 00:13:09;;;;;;;;;;;;;;;;;;5025466;27;90782;-74
2023/06/22 00:15:35;;;;;;;;;;;;;;;;;;5027445;27;89048;-75
2023/06/22 00:18:02;;;;;;;;;;;;;;;;;;5027848;28;89919;-74
2023/06/22 00:20:30;;;;;;;;;;;;;;;;;;5030858;27;92038;-74
2023/06/22 00:22:56;;;;;;;;;;;;;;;;;;5028137;28;89879;-75
2023/06/22 00:25:21;;;;;;;;;;;;;;;;;;5021969;28;89246;-74
2023/06/22 00:27:47;;;;;;;;;;;;;;;;;;5027959;27;89094;-74
2023/06/22 00:30:12;;;;;;;;;;;;;;;;;;5025390;27;90921;-74
2023/06/22 00:32:37;;;;;;;;;;;;;;;;;;5027364;27;89473;-74
2023/06/22 00:35:03;;;;;;;;;;;;;;;;;;5027236;28;89404;-74
2023/06/22 00:37:29;;;;;;;;;;;;;;;;;;5027682;28;89694;-74
2023/06/22 00:39:54;;;;;;;;;;;;;;;;;;5025270;28;90940;-74
2023/06/22 00:42:20;;;;;;;;;;;;;;;;;;5026614;27;89234;-74
2023/06/22 00:44:45;;;;;;;;;;;;;;;;;;5026925;28;89655;-74
2023/06/22 00:47:15;;;;;;;;;;;;;;;;;;5025092;28;89020;-74
2023/06/22 00:49:41;;;;;;;;;;;;;;;;;;5025774;27;89687;-74
2023/06/22 00:52:13;;;;;;;;;;;;;;;;;;5026531;27;89594;-74
2023/06/22 00:54:39;;;;;;;;;;;;;;;;;;5021994;27;89290;-74
2023/06/22 00:57:05;;;;;;;;;;;;;;;;;;5026551;27;89748;-74
2023/06/22 00:59:32;;;;;;;;;;;;;;;;;;5026140;28;89670;-73
2023/06/22 01:01:57;;;;;;;;;;;;;;;;;;5024214;28;90518;-74
2023/06/22 01:04:24;;;;;;;;;;;;;;;;;;5027981;28;89775;-74
2023/06/22 01:06:58;;;;;;;;;;;;;;;;;;5026584;28;89755;-74
2023/06/22 01:09:27;;;;;;;;;;;;;;;;;;5022628;28;90088;-74
2023/06/22 01:11:54;;;;;;;;;;;;;;;;;;5026963;28;89533;-74
2023/06/22 01:14:40;;;;;;;;;;;;;;;;;;5019232;27;89437;-74
2023/06/22 01:17:07;;;;;;;;;;;;;;;;;;5022922;28;92337;-74
2023/06/22 01:19:43;;;;;;;;;;;;;;;;;;5026426;27;90261;-74
2023/06/22 01:22:12;;;;;;;;;;;;;;;;;;5025656;28;89245;-75
2023/06/22 01:24:56;;;;;;;;;;;;;;;;;;5026376;27;90373;-74
2023/06/22 01:27:23;;;;;;;;;;;;;;;;;;5029568;28;89462;-75
2023/06/22 01:30:00;;;;;;;;;;;;;;;;;;5022752;28;89969;-74
2023/06/22 01:32:28;;;;;;;;;;;;;;;;;;5024255;28;92173;-74
2023/06/22 01:34:53;;;;;;;;;;;;;;;;;;5021046;28;90052;-74
2023/06/22 01:37:19;;;;;;;;;;;;;;;;;;5026159;28;90226;-74
2023/06/22 01:39:45;;;;;;;;;;;;;;;;;;5026434;28;89436;-74
2023/06/22 01:42:10;;;;;;;;;;;;;;;;;;5022896;28;88999;-74
2023/06/22 01:44:36;;;;;;;;;;;;;;;;;;5023489;28;89675;-74
2023/06/22 01:47:02;;;;;;;;;;;;;;;;;;5029370;27;89973;-74
2023/06/22 01:49:27;;;;;;;;;;;;;;;;;;5023177;28;89778;-74
2023/06/22 01:51:54;;;;;;;;;;;;;;;;;;5026717;27;90675;-74
2023/06/22 01:54:19;;;;;;;;;;;;;;;;;;5026268;28;89878;-74
2023/06/22 01:56:44;;;;;;;;;;;;;;;;;;5027063;28;89109;-74
2023/06/22 01:59:13;;;;;;;;;;;;;;;;;;5026340;28;89323;-75
2023/06/22 02:01:42;;;;;;;;;;;;;;;;;;5025767;28;90632;-74
2023/06/22 02:04:11;;;;;;;;;;;;;;;;;;5026364;27;90207;-73
2023/06/22 02:06:38;;;;;;;;;;;;;;;;;;5026232;28;89903;-74
2023/06/22 02:09:07;;;;;;;;;;;;;;;;;;5030584;27;90263;-74
2023/06/22 02:11:33;;;;;;;;;;;;;;;;;;5021711;28;92783;-73
2023/06/22 02:13:58;;;;;;;;;;;;;;;;;;5023862;28;90190;-74
2023/06/22 02:16:24;;;;;;;;;;;;;;;;;;5023436;28;91444;-75
2023/06/22 02:18:50;;;;;;;;;;;;;;;;;;5024997;28;89548;-74
2023/06/22 02:21:17;;;;;;;;;;;;;;;;;;5021052;28;90502;-74
2023/06/22 02:23:42;;;;;;;;;;;;;;;;;;5022532;28;89762;-74
2023/06/22 02:26:08;;;;;;;;;;;;;;;;;;5021535;28;89560;-74
2023/06/22 02:28:33;;;;;;;;;;;;;;;;;;5024124;27;89729;-74
2023/06/22 02:30:58;;;;;;;;;;;;;;;;;;5025156;28;89993;-75
2023/06/22 02:33:24;;;;;;;;;;;;;;;;;;5024589;28;90511;-74
2023/06/22 02:35:49;;;;;;;;;;;;;;;;;;5020982;27;90880;-75
2023/06/22 02:38:15;;;;;;;;;;;;;;;;;;5022406;28;90003;-75
2023/06/22 02:40:40;;;;;;;;;;;;;;;;;;5021787;27;89986;-74
2023/06/22 02:43:05;;;;;;;;;;;;;;;;;;5021904;28;90400;-74
2023/06/22 02:45:30;;;;;;;;;;;;;;;;;;5023470;28;90747;-75
2023/06/22 02:47:56;;;;;;;;;;;;;;;;;;5019408;27;89090;-74
2023/06/22 02:50:21;;;;;;;;;;;;;;;;;;5037645;27;92458;-74
2023/06/22 02:52:47;;;;;;;;;;;;;;;;;;5022343;27;89306;-74
2023/06/22 02:55:12;;;;;;;;;;;;;;;;;;5022299;28;89862;-74
2023/06/22 02:57:37;;;;;;;;;;;;;;;;;;5018342;27;89680;-74
2023/06/22 03:00:13;;;;;;;;;;;;;;;;;;5020053;27;89549;-74
2023/06/22 03:02:39;;;;;;;;;;;;;;;;;;5020929;28;89775;-74
2023/06/22 03:05:06;;;;;;;;;;;;;;;;;;5019359;28;92796;-74
2023/06/22 03:07:31;;;;;;;;;;;;;;;;;;5016185;28;89474;-74
2023/06/22 03:09:56;;;;;;;;;;;;;;;;;;5022393;28;89789;-74
2023/06/22 03:12:22;;;;;;;;;;;;;;;;;;5019277;28;89282;-75
2023/06/22 03:14:47;;;;;;;;;;;;;;;;;;5023507;28;91427;-74
2023/06/22 03:17:12;;;;;;;;;;;;;;;;;;5016714;28;89313;-74
2023/06/22 03:19:37;;;;;;;;;;;;;;;;;;5024521;28;89353;-74
2023/06/22 03:22:03;;;;;;;;;;;;;;;;;;5020964;28;89819;-74
2023/06/22 03:24:29;;;;;;;;;;;;;;;;;;5022183;28;91392;-74
2023/06/22 03:26:54;;;;;;;;;;;;;;;;;;5023114;28;89550;-74
2023/06/22 03:29:20;;;;;;;;;;;;;;;;;;5021659;27;89489;-74
2023/06/22 03:31:45;;;;;;;;;;;;;;;;;;5026232;27;91265;-73
2023/06/22 03:34:10;;;;;;;;;;;;;;;;;;5022303;27;89835;-74
2023/06/22 03:36:36;;;;;;;;;;;;;;;;;;5018086;28;91632;-74
2023/06/22 03:39:01;;;;;;;;;;;;;;;;;;5022077;28;89566;-74
2023/06/22 03:41:26;;;;;;;;;;;;;;;;;;5039117;27;92466;-74
2023/06/22 03:43:51;;;;;;;;;;;;;;;;;;5020644;28;89470;-74
2023/06/22 03:46:16;;;;;;;;;;;;;;;;;;5022532;28;89812;-75
2023/06/22 03:48:42;;;;;;;;;;;;;;;;;;5023333;28;90074;-74
2023/06/22 03:51:07;;;;;;;;;;;;;;;;;;5026748;28;89743;-74
2023/06/22 03:53:32;;;;;;;;;;;;;;;;;;5020648;28;89281;-74
2023/06/22 03:55:57;;;;;;;;;;;;;;;;;;5022631;28;90098;-74
2023/06/22 03:58:23;;;;;;;;;;;;;;;;;;5026885;28;91037;-74
2023/06/22 04:00:48;;;;;;;;;;;;;;;;;;5022550;28;89798;-74
2023/06/22 04:03:14;;;;;;;;;;;;;;;;;;5020927;27;90396;-74
2023/06/22 04:05:40;;;;;;;;;;;;;;;;;;5026411;27;89467;-74
2023/06/22 04:08:05;;;;;;;;;;;;;;;;;;5025243;28;89781;-74
2023/06/22 04:10:31;;;;;;;;;;;;;;;;;;5021642;27;90022;-74
2023/06/22 04:12:56;;;;;;;;;;;;;;;;;;5025398;28;89569;-74
2023/06/22 04:15:21;;;;;;;;;;;;;;;;;;5022082;27;89733;-74
2023/06/22 04:17:46;;;;;;;;;;;;;;;;;;5027769;28;90193;-74
2023/06/22 04:20:12;;;;;;;;;;;;;;;;;;5021472;28;89807;-74
2023/06/22 04:22:37;;;;;;;;;;;;;;;;;;5023335;28;89733;-74
2023/06/22 04:25:02;;;;;;;;;;;;;;;;;;5023499;28;89538;-74
2023/06/22 04:27:28;;;;;;;;;;;;;;;;;;5022067;28;89757;-74
2023/06/22 04:29:53;;;;;;;;;;;;;;;;;;5021979;28;89689;-74
2023/06/22 04:32:19;;;;;;;;;;;;;;;;;;5021943;28;89555;-74
2023/06/22 04:34:44;;;;;;;;;;;;;;;;;;5025280;27;90387;-74
2023/06/22 04:37:09;;;;;;;;;;;;;;;;;;5021444;28;89710;-74
2023/06/22 04:39:34;;;;;;;;;;;;;;;;;;5028892;28;91428;-74
2023/06/22 04:42:00;;;;;;;;;;;;;;;;;;5023571;28;90592;-75
2023/06/22 04:44:25;;;;;;;;;;;;;;;;;;5026173;27;89436;-74
2023/06/22 04:46:59;;;;;;;;;;;;;;;;;;5026051;27;89734;-75
2023/06/22 04:49:32;;;;;;;;;;;;;;;;;;5025164;28;89891;-74
2023/06/22 04:51:57;;;;;;;;;;;;;;;;;;5023675;28;89315;-74
2023/06/22 04:54:23;;;;;;;;;;;;;;;;;;5025089;27;89765;-74
2023/06/22 04:56:56;;;;;;;;;;;;;;;;;;5021008;28;89490;-75
2023/06/22 04:59:21;;;;;;;;;;;;;;;;;;5024623;28;89270;-74
2023/06/22 05:01:46;;;;;;;;;;;;;;;;;;5026009;28;89418;-74
2023/06/22 05:04:11;;;;;;;;;;;;;;;;;;5023329;27;89926;-74
2023/06/22 05:06:36;;;;;;;;;;;;;;;;;;5025204;28;90652;-74
2023/06/22 05:09:03;;;;;;;;;;;;;;;;;;5022377;28;92005;-75
2023/06/22 05:11:28;;;;;;;;;;;;;;;;;;5022650;28;89187;-75
2023/06/22 05:13:54;;;;;;;;;;;;;;;;;;5021926;28;89103;-74
2023/06/22 05:16:23;;;;;;;;;;;;;;;;;;5023239;28;89549;-74
2023/06/22 05:18:49;;;;;;;;;;;;;;;;;;5018584;28;89140;-74
2023/06/22 05:21:14;;;;;;;;;;;;;;;;;;5024799;28;90034;-74
2023/06/22 05:23:39;;;;;;;;;;;;;;;;;;5024197;28;90376;-75
2023/06/22 05:26:05;;;;;;;;;;;;;;;;;;5020562;28;90904;-74
2023/06/22 05:28:30;;;;;;;;;;;;;;;;;;5019861;28;90542;-73
2023/06/22 05:30:55;;;;;;;;;;;;;;;;;;5023070;28;90516;-73
2023/06/22 05:33:20;;;;;;;;;;;;;;;;;;5025561;27;93070;-74
2023/06/22 05:35:46;;;;;;;;;;;;;;;;;;5023819;28;89473;-75
2023/06/22 05:38:11;;;;;;;;;;;;;;;;;;5024142;28;89808;-74
2023/06/22 05:40:37;;;;;;;;;;;;;;;;;;5020547;28;90376;-75
2023/06/22 05:43:02;;;;;;;;;;;;;;;;;;5024029;27;89463;-77
2023/06/22 05:45:27;;;;;;;;;;;;;;;;;;5025719;28;89496;-76
2023/06/22 05:47:53;;;;;;;;;;;;;;;;;;5021743;28;89723;-76
2023/06/22 05:50:18;;;;;;;;;;;;;;;;;;5023911;27;89203;-76
2023/06/22 05:52:43;;;;;;;;;;;;;;;;;;5023617;28;90096;-77
2023/06/22 05:55:09;;;;;;;;;;;;;;;;;;5023928;28;89235;-77
2023/06/22 05:57:34;;;;;;;;;;;;;;;;;;5023043;28;91417;-73
2023/06/22 05:59:59;;;;;;;;;;;;;;;;;;5023030;28;90907;-77
2023/06/22 06:02:25;;;;;;;;;;;;;;;;;;5023111;28;89988;-78
2023/06/22 06:04:52;;;;;;;;;;;;;;;;;;5027585;28;89712;-77
2023/06/22 06:07:17;;;;;;;;;;;;;;;;;;5020955;27;91071;-75
2023/06/22 06:09:43;;;;;;;;;;;;;;;;;;5019822;28;90191;-77
2023/06/22 06:12:08;;;;;;;;;;;;;;;;;;5022394;28;89736;-77
2023/06/22 06:14:34;;;;;;;;;;;;;;;;;;5019761;28;91997;-77
2023/06/22 06:16:59;;;;;;;;;;;;;;;;;;5015471;28;89296;-78
2023/06/22 06:19:24;;;;;;;;;;;;;;;;;;5020577;28;89512;-77
2023/06/22 06:21:50;;;;;;;;;;;;;;;;;;5023338;28;90194;-76
2023/06/22 06:24:15;;;;;;;;;;;;;;;;;;5020198;28;89584;-77
2023/06/22 06:26:40;;;;;;;;;;;;;;;;;;5022168;28;92658;-76
2023/06/22 06:29:05;;;;;;;;;;;;;;;;;;5020558;28;89566;-77
2023/06/22 06:31:31;;;;;;;;;;;;;;;;;;5026167;27;93552;-77
2023/06/22 06:33:56;;;;;;;;;;;;;;;;;;5021969;27;89620;-77
2023/06/22 06:36:21;;;;;;;;;;;;;;;;;;5022056;28;89146;-77
2023/06/22 06:38:47;;;;;;;;;;;;;;;;;;5021458;28;89971;-77
2023/06/22 06:41:15;;;;;;;;;;;;;;;;;;5023174;28;89286;-76
2023/06/22 06:43:43;;;;;;;;;;;;;;;;;;5019539;28;90561;-78
2023/06/22 06:46:08;;;;;;;;;;;;;;;;;;5027398;27;91666;-74
2023/06/22 06:48:33;;;;;;;;;;;;;;;;;;5022172;28;89500;-74
2023/06/22 06:50:58;;;;;;;;;;;;;;;;;;5020986;28;90151;-77
2023/06/22 06:53:24;;;;;;;;;;;;;;;;;;5020175;28;89826;-76
2023/06/22 06:55:49;;;;;;;;;;;;;;;;;;5023817;27;89753;-75
2023/06/22 06:58:14;;;;;;;;;;;;;;;;;;5021595;28;89866;-74
2023/06/22 07:00:40;;;;;;;;;;;;;;;;;;5023761;27;90342;-76
2023/06/22 07:03:06;;;;;;;;;;;;;;;;;;5023033;27;90358;-77
2023/06/22 07:05:32;;;;;;;;;;;;;;;;;;5023613;27;90004;-76
2023/06/22 07:07:57;;;;;;;;;;;;;;;;;;5023656;28;90797;-75
2023/06/22 07:10:22;;;;;;;;;;;;;;;;;;5029645;28;89071;-75
2023/06/22 07:12:47;;;;;;;;;;;;;;;;;;5025731;28;90100;-75
2023/06/22 07:15:13;;;;;;;;;;;;;;;;;;5039650;27;90922;-79
2023/06/22 07:17:41;;;;;;;;;;;;;;;;;;5019904;27;90866;-74
2023/06/22 07:20:11;;;;;;;;;;;;;;;;;;5021461;27;91102;-79
2023/06/22 07:22:37;;;;;;;;;;;;;;;;;;5026507;27;89317;-77
2023/06/22 07:25:09;;;;;;;;;;;;;;;;;;5024021;28;89805;-78
2023/06/22 07:27:44;;;;;;;;;;;;;;;;;;5018190;28;90476;-75
2023/06/22 07:30:10;;;;;;;;;;;;;;;;;;5021949;28;89498;-75
2023/06/22 07:32:36;;;;;;;;;;;;;;;;;;5019911;28;91938;-75
2023/06/22 07:35:02;;;;;;;;;;;;;;;;;;5027867;27;90075;-75
2023/06/22 07:37:28;;;;;;;;;;;;;;;;;;5024104;27;92816;-74
2023/06/22 07:39:57;;;;;;;;;;;;;;;;;;5027020;27;89420;-79
2023/06/22 07:42:23;;;;;;;;;;;;;;;;;;5021208;28;90324;-76
2023/06/22 07:44:48;;;;;;;;;;;;;;;;;;5024671;28;92999;-77
2023/06/22 07:47:13;;;;;;;;;;;;;;;;;;5026217;28;90743;-76
2023/06/22 07:49:38;;;;;;;;;;;;;;;;;;5025060;27;90158;-76
2023/06/22 07:52:04;;;;;;;;;;;;;;;;;;5026956;27;90183;-76
2023/06/22 07:54:30;;;;;;;;;;;;;;;;;;5029144;27;89179;-75
2023/06/22 07:56:55;;;;;;;;;;;;;;;;;;5027099;28;89023;-76
2023/06/22 07:59:20;;;;;;;;;;;;;;;;;;5023935;27;89447;-75
2023/06/22 08:01:48;;;;;;;;;;;;;;;;;;5023723;27;89192;-79
2023/06/22 08:04:14;;;;;;;;;;;;;;;;;;5022477;27;89704;-76
2023/06/22 08:06:39;;;;;;;;;;;;;;;;;;5025172;28;92590;-74
2023/06/22 08:09:04;;;;;;;;;;;;;;;;;;5025582;28;90887;-75
2023/06/22 08:11:29;;;;;;;;;;;;;;;;;;5026358;28;90228;-79
2023/06/22 08:13:55;;;;;;;;;;;;;;;;;;5026141;28;89651;-74
2023/06/22 08:16:20;;;;;;;;;;;;;;;;;;5024198;27;93119;-74
2023/06/22 08:18:46;;;;;;;;;;;;;;;;;;5024872;28;89361;-73
2023/06/22 08:21:11;;;;;;;;;;;;;;;;;;5023026;28;89810;-76
2023/06/22 08:23:36;;;;;;;;;;;;;;;;;;5024691;27;90756;-78
2023/06/22 08:26:01;;;;;;;;;;;;;;;;;;5026044;28;89724;-76
2023/06/22 08:28:27;;;;;;;;;;;;;;;;;;5020427;28;89882;-78
2023/06/22 08:30:52;;;;;;;;;;;;;;;;;;5023253;27;93823;-78
2023/06/22 08:33:17;;;;;;;;;;;;;;;;;;5026918;28;89259;-76
2023/06/22 08:35:43;;;;;;;;;;;;;;;;;;5029612;27;89254;-79
2023/06/22 08:38:08;;;;;;;;;;;;;;;;;;5026821;27;89946;-77
2023/06/22 08:40:34;;;;;;;;;;;;;;;;;;5026450;28;89276;-76
2023/06/22 08:42:59;;;;;;;;;;;;;;;;;;5026027;28;89766;-75
2023/06/22 08:45:24;;;;;;;;;;;;;;;;;;5027461;28;89985;-78
2023/06/22 08:47:49;;;;;;;;;;;;;;;;;;5021447;28;89801;-80
2023/06/22 08:50:14;;;;;;;;;;;;;;;;;;5022872;28;91147;-78
2023/06/22 08:52:43;;;;;;;;;;;;;;;;;;5023915;28;90288;-77
2023/06/22 08:55:09;;;;;;;;;;;;;;;;;;5023506;28;89399;-78
2023/06/22 08:57:34;;;;;;;;;;;;;;;;;;5023209;28;91964;-76
2023/06/22 08:59:59;;;;;;;;;;;;;;;;;;5023279;28;89883;-72
2023/06/22 09:02:30;;;;;;;;;;;;;;;;;;5024844;28;90319;-76
2023/06/22 09:04:57;;;;;;;;;;;;;;;;;;5020682;28;90293;-73
2023/06/22 09:07:23;;;;;;;;;;;;;;;;;;5020331;28;89659;-74
2023/06/22 09:09:49;;;;;;;;;;;;;;;;;;5016463;28;92470;-77
2023/06/22 09:12:14;;;;;;;;;;;;;;;;;;5024877;27;89260;-74
2023/06/22 09:14:39;;;;;;;;;;;;;;;;;;5023795;27;90479;-71
2023/06/22 09:17:05;;;;;;;;;;;;;;;;;;5017189;28;90869;-73
2023/06/22 09:19:30;;;;;;;;;;;;;;;;;;5022769;28;90097;-72
2023/06/22 09:21:55;;;;;;;;;;;;;;;;;;5019965;28;89779;-74
2023/06/22 09:24:20;;;;;;;;;;;;;;;;;;5020786;28;89652;-71
2023/06/22 09:26:45;;;;;;;;;;;;;;;;;;5023226;28;89838;-72
2023/06/22 09:29:11;;;;;;;;;;;;;;;;;;5022543;28;90391;-72
2023/06/22 09:31:36;;;;;;;;;;;;;;;;;;5021516;28;90489;-76
2023/06/22 09:34:02;;;;;;;;;;;;;;;;;;5022361;27;89798;-74
2023/06/22 09:36:27;;;;;;;;;;;;;;;;;;5021228;28;89732;-74
2023/06/22 09:38:55;;;;;;;;;;;;;;;;;;5021411;28;92376;-74
2023/06/22 09:41:21;;;;;;;;;;;;;;;;;;5025752;27;90010;-75
2023/06/22 09:43:47;;;;;;;;;;;;;;;;;;5023271;27;90084;-74
2023/06/22 09:46:13;;;;;;;;;;;;;;;;;;5017775;28;89729;-74
2023/06/22 09:48:38;;;;;;;;;;;;;;;;;;5022705;28;89674;-74
2023/06/22 09:51:03;;;;;;;;;;;;;;;;;;5019809;28;89690;-74
2023/06/22 09:53:28;;;;;;;;;;;;;;;;;;5020755;27;89082;-74
2023/06/22 09:55:53;;;;;;;;;;;;;;;;;;5022265;28;89924;-74
2023/06/22 09:58:19;;;;;;;;;;;;;;;;;;5023638;28;89323;-74
2023/06/22 10:00:44;;;;;;;;;;;;;;;;;;5021262;28;89411;-74
2023/06/22 10:03:09;;;;;;;;;;;;;;;;;;5022201;28;90986;-77
2023/06/22 10:05:34;;;;;;;;;;;;;;;;;;5022381;28;89258;-73
2023/06/22 10:07:59;;;;;;;;;;;;;;;;;;5022771;28;90024;-71
2023/06/22 10:10:25;;;;;;;;;;;;;;;;;;5022359;28;89615;-71
2023/06/22 10:12:57;;;;;;;;;;;;;;;;;;5019316;28;89821;-73
2023/06/22 10:15:22;;;;;;;;;;;;;;;;;;5017956;28;90685;-74
2023/06/22 10:17:47;;;;;;;;;;;;;;;;;;5020267;28;89971;-74
2023/06/22 10:20:13;;;;;;;;;;;;;;;;;;5022107;28;89651;-74
2023/06/22 10:22:41;;;;;;;;;;;;;;;;;;5022946;27;89819;-74
2023/06/22 10:25:07;;;;;;;;;;;;;;;;;;5015625;28;90594;-74
2023/06/22 10:27:32;;;;;;;;;;;;;;;;;;5022469;27;89639;-74
2023/06/22 10:29:57;;;;;;;;;;;;;;;;;;5018349;28;90002;-74
2023/06/22 10:32:22;;;;;;;;;;;;;;;;;;5019486;28;89715;-75
2023/06/22 10:34:48;;;;;;;;;;;;;;;;;;5023603;28;89833;-75
2023/06/22 10:37:13;;;;;;;;;;;;;;;;;;5022494;28;89549;-75
2023/06/22 10:39:38;;;;;;;;;;;;;;;;;;5025479;28;89052;-75
2023/06/22 10:42:03;;;;;;;;;;;;;;;;;;5024106;28;89677;-75
2023/06/22 10:44:29;;;;;;;;;;;;;;;;;;5029606;28;90759;-74
2023/06/22 10:46:54;;;;;;;;;;;;;;;;;;5027766;28;89998;-75
2023/06/22 10:49:19;;;;;;;;;;;;;;;;;;5022016;27;90740;-74
2023/06/22 10:51:44;;;;;;;;;;;;;;;;;;5039760;27;89822;-74
2023/06/22 10:54:10;;;;;;;;;;;;;;;;;;5023596;28;89721;-74
2023/06/22 10:56:35;;;;;;;;;;;;;;;;;;5024942;28;90866;-74
2023/06/22 10:59:01;;;;;;;;;;;;;;;;;;5021555;28;89318;-74
2023/06/22 11:01:27;;;;;;;;;;;;;;;;;;5024954;28;90714;-75
2023/06/22 11:03:53;;;;;;;;;;;;;;;;;;5026485;27;89146;-74
2023/06/22 11:06:18;;;;;;;;;;;;;;;;;;5030677;28;89905;-74
2023/06/22 11:08:44;;;;;;;;;;;;;;;;;;5023282;28;89728;-76
2023/06/22 11:11:09;;;;;;;;;;;;;;;;;;5023744;28;89365;-75
2023/06/22 11:13:34;;;;;;;;;;;;;;;;;;5023329;28;89780;-73
2023/06/22 11:15:59;;;;;;;;;;;;;;;;;;5025150;28;90185;-73
2023/06/22 11:18:24;;;;;;;;;;;;;;;;;;5024511;28;89668;-71
2023/06/22 11:20:50;;;;;;;;;;;;;;;;;;5022239;28;89830;-73
2023/06/22 11:23:15;;;;;;;;;;;;;;;;;;5019640;27;90400;-73
2023/06/22 11:25:42;;;;;;;;;;;;;;;;;;5025036;28;89821;-72
2023/06/22 11:28:08;;;;;;;;;;;;;;;;;;5027339;28;90821;-72
2023/06/22 11:30:33;;;;;;;;;;;;;;;;;;5026384;27;89202;-72
2023/06/22 11:32:59;;;;;;;;;;;;;;;;;;5023910;27;92202;-72
2023/06/22 11:35:25;;;;;;;;;;;;;;;;;;5027713;28;89814;-71
2023/06/22 11:37:50;;;;;;;;;;;;;;;;;;5021614;28;90248;-72
2023/06/22 11:40:17;;;;;;;;;;;;;;;;;;5021341;27;93258;-72
2023/06/22 11:42:42;;;;;;;;;;;;;;;;;;5023377;27;89308;-72
2023/06/22 11:45:08;;;;;;;;;;;;;;;;;;5021787;28;90725;-72
2023/06/22 11:47:33;;;;;;;;;;;;;;;;;;5025222;28;91829;-73
2023/06/22 11:49:58;;;;;;;;;;;;;;;;;;5024268;28;89964;-72
2023/06/22 11:52:23;;;;;;;;;;;;;;;;;;5026218;28;89573;-73
2023/06/22 11:54:48;;;;;;;;;;;;;;;;;;5024408;27;89835;-72
2023/06/22 11:57:14;;;;;;;;;;;;;;;;;;5021606;28;89589;-72
2023/06/22 11:59:39;;;;;;;;;;;;;;;;;;5021736;28;89501;-72
2023/06/22 12:02:07;;;;;;;;;;;;;;;;;;5024061;27;89365;-72
2023/06/22 12:04:33;;;;;;;;;;;;;;;;;;5021901;28;90419;-72
2023/06/22 12:06:58;;;;;;;;;;;;;;;;;;5023016;27;91015;-73
2023/06/22 12:09:23;;;;;;;;;;;;;;;;;;5030027;28;89733;-73
2023/06/22 12:11:48;;;;;;;;;;;;;;;;;;5024286;28;90746;-72
2023/06/22 12:14:13;;;;;;;;;;;;;;;;;;5019894;28;91928;-72
2023/06/22 12:16:39;;;;;;;;;;;;;;;;;;5022803;28;89656;-73
2023/06/22 12:19:04;;;;;;;;;;;;;;;;;;5024864;28;90258;-72
2023/06/22 12:21:29;;;;;;;;;;;;;;;;;;5024313;27;89687;-72
2023/06/22 12:23:55;;;;;;;;;;;;;;;;;;5024393;27;90257;-73
2023/06/22 12:26:21;;;;;;;;;;;;;;;;;;5039265;27;91967;-73
2023/06/22 12:28:47;;;;;;;;;;;;;;;;;;5020803;27;90975;-72
2023/06/22 12:31:12;;;;;;;;;;;;;;;;;;5022656;27;89049;-72
2023/06/22 12:33:38;;;;;;;;;;;;;;;;;;5022375;28;89239;-72
2023/06/22 12:36:04;;;;;;;;;;;;;;;;;;5016321;28;89979;-72
2023/06/22 12:38:30;;;;;;;;;;;;;;;;;;5025158;27;89723;-73
2023/06/22 12:40:55;;;;;;;;;;;;;;;;;;5025222;28;90058;-73
2023/06/22 12:43:20;;;;;;;;;;;;;;;;;;5019770;27;90522;-73
2023/06/22 12:45:45;;;;;;;;;;;;;;;;;;5025697;28;90317;-74
2023/06/22 12:48:10;;;;;;;;;;;;;;;;;;5023600;28;90031;-71
2023/06/22 12:50:36;;;;;;;;;;;;;;;;;;5021296;27;89435;-72
2023/06/22 12:53:04;;;;;;;;;;;;;;;;;;5027272;28;89700;-73
2023/06/22 12:55:29;;;;;;;;;;;;;;;;;;5021034;27;90535;-76
2023/06/22 12:57:54;;;;;;;;;;;;;;;;;;5024592;28;90443;-69
2023/06/22 13:00:19;;;;;;;;;;;;;;;;;;5023049;28;89945;-72
2023/06/22 13:02:45;;;;;;;;;;;;;;;;;;5020260;28;89899;-73
2023/06/22 13:05:11;;;;;;;;;;;;;;;;;;5019788;28;89355;-72
2023/06/22 13:07:36;;;;;;;;;;;;;;;;;;5021699;28;89734;-70
2023/06/22 13:10:02;;;;;;;;;;;;;;;;;;5020009;27;89445;-71
2023/06/22 13:12:27;;;;;;;;;;;;;;;;;;5023563;27;91941;-70
2023/06/22 13:14:52;;;;;;;;;;;;;;;;;;5025412;27;89113;-70
2023/06/22 13:17:18;;;;;;;;;;;;;;;;;;5021588;27;89708;-70
2023/06/22 13:19:43;;;;;;;;;;;;;;;;;;5016667;28;89268;-70
2023/06/22 13:22:27;;;;;;;;;;;;;;;;;;5023139;27;89348;-71
2023/06/22 13:24:53;;;;;;;;;;;;;;;;;;5020983;28;90880;-73
2023/06/22 13:27:18;;;;;;;;;;;;;;;;;;5018310;27;90792;-69
2023/06/22 13:29:43;;;;;;;;;;;;;;;;;;5020115;28;89358;-72
2023/06/22 13:32:09;;;;;;;;;;;;;;;;;;5021851;28;91097;-71
2023/06/22 13:34:34;;;;;;;;;;;;;;;;;;5020385;28;89937;-65
2023/06/22 13:36:59;;;;;;;;;;;;;;;;;;5021478;28;90511;-66
2023/06/22 13:39:24;;;;;;;;;;;;;;;;;;5015978;28;91016;-65
2023/06/22 13:41:49;;;;;;;;;;;;;;;;;;5014631;28;89894;-65
2023/06/22 13:44:15;;;;;;;;;;;;;;;;;;5031971;27;92790;-72
2023/06/22 13:46:40;;;;;;;;;;;;;;;;;;5023436;28;89554;-75
2023/06/22 13:49:05;;;;;;;;;;;;;;;;;;5020750;28;90220;-67
2023/06/22 13:51:30;;;;;;;;;;;;;;;;;;5020853;28;89828;-69
2023/06/22 13:53:55;;;;;;;;;;;;;;;;;;5024616;28;89562;-73
2023/06/22 13:56:21;;;;;;;;;;;;;;;;;;5022290;27;89766;-74
2023/06/22 13:58:46;;;;;;;;;;;;;;;;;;5020806;28;89688;-72
2023/06/22 14:01:12;;;;;;;;;;;;;;;;;;5019712;28;90132;-72
2023/06/22 14:03:37;;;;;;;;;;;;;;;;;;5020958;28;89672;-73
2023/06/22 14:06:02;;;;;;;;;;;;;;;;;;5018581;28;89640;-70
2023/06/22 14:08:27;;;;;;;;;;;;;;;;;;5023463;27;90100;-68
2023/06/22 14:10:53;;;;;;;;;;;;;;;;;;5024421;28;90397;-73
2023/06/22 14:13:18;;;;;;;;;;;;;;;;;;5023324;27;90062;-74
2023/06/22 14:15:44;;;;;;;;;;;;;;;;;;5024735;28;89432;-73
2023/06/22 14:18:09;;;;;;;;;;;;;;;;;;5027827;27;92375;-69
2023/06/22 14:20:34;;;;;;;;;;;;;;;;;;5021755;28;90099;-72
2023/06/22 14:22:59;;;;;;;;;;;;;;;;;;5023219;28;89747;-73
2023/06/22 14:25:24;;;;;;;;;;;;;;;;;;5018255;28;92046;-71
2023/06/22 14:27:50;;;;;;;;;;;;;;;;;;5024496;28;89739;-73
2023/06/22 14:30:15;;;;;;;;;;;;;;;;;;5021976;27;93251;-68
2023/06/22 14:32:43;;;;;;;;;;;;;;;;;;5023938;28;90238;-69
2023/06/22 14:35:08;;;;;;;;;;;;;;;;;;5024029;28;91119;-68
2023/06/22 14:37:33;;;;;;;;;;;;;;;;;;5019154;28;91011;-70
2023/06/22 14:40:01;;;;;;;;;;;;;;;;;;5025146;28;90823;-69
2023/06/22 14:42:27;;;;;;;;;;;;;;;;;;5019158;27;90830;-69
2023/06/22 14:44:52;;;;;;;;;;;;;;;;;;5018459;27;90158;-74
2023/06/22 14:47:18;;;;;;;;;;;;;;;;;;5021329;28;89601;-73
2023/06/22 14:49:43;;;;;;;;;;;;;;;;;;5018797;28;90121;-66
2023/06/22 14:52:09;;;;;;;;;;;;;;;;;;5023626;28;89595;-72
2023/06/22 14:54:34;;;;;;;;;;;;;;;;;;5020938;27;89641;-66
2023/06/22 14:56:59;;;;;;;;;;;;;;;;;;5018669;28;89694;-66
2023/06/22 14:59:24;;;;;;;;;;;;;;;;;;5018469;28;92607;-72
2023/06/22 15:01:49;;;;;;;;;;;;;;;;;;5024939;28;89748;-70
2023/06/22 15:04:15;;;;;;;;;;;;;;;;;;5017611;28;89761;-65
2023/06/22 15:06:40;;;;;;;;;;;;;;;;;;5013285;28;90321;-71
2023/06/22 15:09:05;;;;;;;;;;;;;;;;;;5021521;27;90630;-70
2023/06/22 15:11:31;;;;;;;;;;;;;;;;;;5022186;28;89666;-68
2023/06/22 15:13:58;;;;;;;;;;;;;;;;;;5009852;28;90296;-70
2023/06/22 15:16:23;;;;;;;;;;;;;;;;;;5018752;28;90039;-68
2023/06/22 15:18:48;;;;;;;;;;;;;;;;;;5024244;28;90247;-72
2023/06/22 15:21:14;;;;;;;;;;;;;;;;;;5026316;28;89822;-74
2023/06/22 15:23:39;;;;;;;;;;;;;;;;;;5024485;28;89820;-73
2023/06/22 15:26:07;;;;;;;;;;;;;;;;;;5021740;28;89200;-65
2023/06/22 15:28:34;;;;;;;;;;;;;;;;;;5023725;28;90761;-68
2023/06/22 15:31:00;;;;;;;;;;;;;;;;;;5021664;28;90155;-66
2023/06/22 15:33:25;;;;;;;;;;;;;;;;;;5023083;28;89943;-68
2023/06/22 15:35:52;;;;;;;;;;;;;;;;;;5021833;28;89748;-73
2023/06/22 15:38:17;;;;;;;;;;;;;;;;;;5027122;28;89827;-70
2023/06/22 15:40:42;;;;;;;;;;;;;;;;;;5026399;28;89633;-65
2023/06/22 15:43:13;;;;;;;;;;;;;;;;;;5021894;28;90292;-66
2023/06/22 15:45:38;;;;;;;;;;;;;;;;;;5029649;28;90001;-66
2023/06/22 15:48:03;;;;;;;;;;;;;;;;;;5026535;28;90008;-67
2023/06/22 15:50:28;;;;;;;;;;;;;;;;;;5023951;28;91304;-70
2023/06/22 15:52:53;;;;;;;;;;;;;;;;;;5024445;28;89440;-66
2023/06/22 15:55:19;;;;;;;;;;;;;;;;;;5024312;27;90051;-70
2023/06/22 15:57:46;;;;;;;;;;;;;;;;;;5022018;28;89925;-77
2023/06/22 16:00:13;;;;;;;;;;;;;;;;;;5021654;27;89551;-75
2023/06/22 16:02:39;;;;;;;;;;;;;;;;;;5026526;28;90174;-76
2023/06/22 16:05:04;;;;;;;;;;;;;;;;;;5026104;28;89640;-72
2023/06/22 16:07:29;;;;;;;;;;;;;;;;;;5029851;28;89391;-76
2023/06/22 16:09:55;;;;;;;;;;;;;;;;;;5025305;28;89811;-77
2023/06/22 16:12:20;;;;;;;;;;;;;;;;;;5023364;28;90335;-74
2023/06/22 16:14:45;;;;;;;;;;;;;;;;;;5022516;27;89989;-69
2023/06/22 16:17:10;;;;;;;;;;;;;;;;;;5022789;28;90875;-71
2023/06/22 16:19:36;;;;;;;;;;;;;;;;;;5023265;27;90200;-72
2023/06/22 16:22:01;;;;;;;;;;;;;;;;;;5024437;27;90098;-70
2023/06/22 16:24:27;;;;;;;;;;;;;;;;;;5022122;28;89593;-71
2023/06/22 16:26:52;;;;;;;;;;;;;;;;;;5025547;27;90470;-72
2023/06/22 16:29:17;;;;;;;;;;;;;;;;;;5021810;28;90454;-66
2023/06/22 16:31:43;;;;;;;;;;;;;;;;;;5024224;28;89486;-69
2023/06/22 16:34:08;;;;;;;;;;;;;;;;;;5019838;28;91761;-71
2023/06/22 16:36:33;;;;;;;;;;;;;;;;;;5019595;28;90198;-67